Advance Mills, Virginia
Current Conditions -  °F | °C
As of 3:32 AM on Monday 24 Nov 2014 (Local Time) from KCHO Reporting Station
Broken Clouds Broken Clouds  
Wind Chill: 12°   Ceiling: 1600
Heat Index: 12°   Visibility: 10mi
Dew Point: 11°   Wind: 10mph
Humidity: 93%   Direction: 200°SSW
Pressure: 29.66"   Gusts: NA
Location:  38.2469°N, 78.3926°W
Report Text: KCHO 240832Z AUTO 20009KT 10SM SCT006 BKN016 BKN033 12/11 A2966 RMK AO2 RAB12E26 P0000 T01220111
Loading
Personal Weather Stations






























Interactive Weather Map New forecast layout! Learn more

10-Day Weather Forecast

Advertisements
Track Severe Weather on mobile